Time;durP1;ratioP1;P1;durP2;ratioP2;P2;SDS_P1;SDS_P2;PMS_P1;PMS_P2;Temp;Humidity;BMP_temperature;BMP_pressure;BME280_temperature;BME280_humidity;BME280_pressure;Samples;Min_cycle;Max_cycle;Signal;HPM_P1;HPM_P2
2022/11/15 00:00:26;;;;;;;4.15;2.70;;;;;;;11.92;nan;100215.59;5062309;28;20033;-86
2022/11/15 00:02:54;;;;;;;4.18;2.92;;;;;;;12.00;nan;100216.44;5055307;28;20089;-85
2022/11/15 00:05:20;;;;;;;3.92;2.60;;;;;;;12.04;nan;100215.09;5048762;28;20036;-86
2022/11/15 00:07:45;;;;;;;6.30;2.80;;;;;;;12.11;nan;100212.63;5053814;28;20041;-86
2022/11/15 00:10:10;;;;;;;3.60;2.50;;;;;;;12.28;nan;100208.09;5051980;28;20516;-85
2022/11/15 00:12:36;;;;;;;4.95;2.90;;;;;;;12.25;nan;100203.97;5055476;28;20045;-86
2022/11/15 00:15:01;;;;;;;3.78;2.78;;;;;;;12.26;nan;100205.59;5055741;28;20037;-86
2022/11/15 00:17:26;;;;;;;4.78;2.63;;;;;;;12.24;nan;100196.97;5046778;28;20036;-85
2022/11/15 00:19:52;;;;;;;5.53;3.08;;;;;;;12.22;nan;100192.84;5053609;28;20025;-85
2022/11/15 00:22:17;;;;;;;4.88;2.80;;;;;;;12.20;nan;100202.78;5038078;28;20043;-86
2022/11/15 00:24:42;;;;;;;4.40;2.75;;;;;;;12.20;nan;100203.63;5056680;28;20041;-85
2022/11/15 00:27:08;;;;;;;3.95;2.70;;;;;;;12.18;nan;100196.84;5053613;28;20200;-85
2022/11/15 00:29:33;;;;;;;3.53;2.40;;;;;;;12.19;nan;100194.03;5054406;28;20101;-85
2022/11/15 00:31:58;;;;;;;3.40;2.35;;;;;;;12.18;nan;100191.53;5074017;28;20036;-85
2022/11/15 00:34:23;;;;;;;3.80;2.37;;;;;;;12.17;nan;100193.34;5044380;28;20127;-86
2022/11/15 00:36:49;;;;;;;4.68;2.88;;;;;;;12.17;nan;100196.00;5050319;28;20272;-87
2022/11/15 00:39:14;;;;;;;3.75;2.50;;;;;;;12.19;nan;100194.03;5051897;28;20033;-85
2022/11/15 00:41:39;;;;;;;4.38;2.88;;;;;;;12.18;nan;100184.44;5056285;28;20048;-85
2022/11/15 00:44:04;;;;;;;5.47;2.97;;;;;;;12.16;nan;100178.47;5057486;28;20749;-85
2022/11/15 00:46:30;;;;;;;3.80;2.30;;;;;;;12.14;nan;100175.16;5057463;28;20044;-86
2022/11/15 00:48:55;;;;;;;2.77;2.07;;;;;;;12.27;nan;100177.25;5057036;28;20411;-86
2022/11/15 00:51:20;;;;;;;3.92;1.88;;;;;;;12.19;nan;100180.78;5051419;28;20104;-85
2022/11/15 00:53:45;;;;;;;2.70;1.70;;;;;;;12.09;nan;100182.78;5058583;28;20047;-86
2022/11/15 00:56:11;;;;;;;3.27;2.10;;;;;;;11.99;nan;100174.19;5056914;28;20040;-85
2022/11/15 00:58:36;;;;;;;4.40;2.60;;;;;;;11.82;nan;100179.53;5050013;28;20283;-85
2022/11/15 01:01:06;;;;;;;3.15;2.30;;;;;;;11.67;nan;100182.00;5077188;28;20032;-85
2022/11/15 01:03:33;;;;;;;5.10;2.80;;;;;;;11.47;nan;100186.00;5056941;28;20060;-86
2022/11/15 01:06:00;;;;;;;4.18;2.58;;;;;;;11.30;nan;100177.25;5055335;28;20291;-87
2022/11/15 01:08:25;;;;;;;6.53;2.95;;;;;;;11.20;nan;100182.69;5061805;28;20398;-85
2022/11/15 01:10:50;;;;;;;4.07;2.90;;;;;;;11.23;nan;100169.13;5063008;28;20037;-86
2022/11/15 01:13:15;;;;;;;5.40;3.08;;;;;;;11.27;nan;100162.50;5057171;28;20036;-85
2022/11/15 01:15:41;;;;;;;4.65;3.10;;;;;;;11.29;nan;100164.97;5073943;28;20090;-85
2022/11/15 01:18:06;;;;;;;4.57;3.08;;;;;;;11.29;nan;100174.75;5055586;28;20036;-85
2022/11/15 01:20:32;;;;;;;4.60;3.10;;;;;;;11.27;nan;100165.16;5055479;28;20031;-85
2022/11/15 01:22:57;;;;;;;5.32;3.10;;;;;;;11.22;nan;100163.97;5040677;28;20453;-85
2022/11/15 01:25:22;;;;;;;4.30;2.60;;;;;;;11.17;nan;100168.94;5043375;28;20039;-85
2022/11/15 01:27:48;;;;;;;3.97;2.53;;;;;;;11.10;nan;100167.94;5072567;28;20029;-85
2022/11/15 01:30:13;;;;;;;4.75;2.42;;;;;;;11.06;nan;100164.81;5050864;28;20065;-85
2022/11/15 01:32:38;;;;;;;4.30;2.75;;;;;;;11.05;nan;100160.50;5053748;28;20386;-85
2022/11/15 01:35:04;;;;;;;6.05;2.90;;;;;;;11.05;nan;100163.16;5055839;28;20036;-84
2022/11/15 01:37:29;;;;;;;4.55;2.60;;;;;;;11.07;nan;100147.94;5055289;28;20541;-85
2022/11/15 01:39:54;;;;;;;3.72;2.55;;;;;;;11.16;nan;100154.06;5073212;28;20094;-86
2022/11/15 01:42:19;;;;;;;4.47;2.60;;;;;;;11.18;nan;100142.31;5053527;28;20021;-84
2022/11/15 01:44:50;;;;;;;4.93;2.95;;;;;;;11.22;nan;100154.22;5055359;28;20544;-85
2022/11/15 01:47:19;;;;;;;3.25;2.20;;;;;;;11.24;nan;100157.53;5047547;28;20079;-85
2022/11/15 01:49:55;;;;;;;5.25;2.38;;;;;;;11.36;nan;100158.03;5072128;28;20050;-85
2022/11/15 01:52:23;;;;;;;5.45;2.97;;;;;;;11.42;nan;100160.03;5052972;28;20553;-86
2022/11/15 01:54:54;;;;;;;4.43;2.78;;;;;;;11.36;nan;100165.97;5071937;28;20051;-86
2022/11/15 01:57:19;;;;;;;4.93;2.67;;;;;;;11.33;nan;100162.84;5080556;28;20035;-85
2022/11/15 01:59:45;;;;;;;4.10;2.50;;;;;;;11.29;nan;100159.69;5071691;28;20052;-85
2022/11/15 02:02:12;;;;;;;3.72;2.25;;;;;;;11.29;nan;100161.50;5070088;28;20090;-85
2022/11/15 02:04:43;;;;;;;3.70;2.50;;;;;;;11.18;nan;100149.44;5051687;28;20572;-86
2022/11/15 02:07:09;;;;;;;;;;;;;;;11.03;nan;100146.59;5044093;28;20424;-85
2022/11/15 02:09:36;;;;;;;2.67;1.90;;;;;;;10.89;nan;100134.84;5051726;28;19916;-85
2022/11/15 02:12:02;;;;;;;3.58;2.00;;;;;;;10.79;nan;100135.00;5050373;28;20037;-85
2022/11/15 02:14:29;;;;;;;3.65;2.20;;;;;;;10.72;nan;100130.53;5065130;28;20508;-86
2022/11/15 02:17:22;;;;;;;3.00;2.03;;;;;;;10.58;nan;100130.19;5046483;28;20037;-85
2022/11/15 02:20:29;;;;;;;2.85;1.70;;;;;;;10.43;nan;100126.50;5069849;28;20032;-85
2022/11/15 02:23:14;;;;;;;3.95;2.20;;;;;;;10.30;nan;100126.94;5044722;28;20033;-85
2022/11/15 02:26:02;;;;;;;2.95;2.13;;;;;;;10.16;nan;100125.72;5069887;28;20051;-85
2022/11/15 02:28:58;;;;;;;3.60;2.28;;;;;;;10.01;nan;100119.38;5061558;28;20660;-85
2022/11/15 02:31:39;;;;;;;3.13;2.38;;;;;;;9.92;nan;100118.50;5052099;28;20041;-85
2022/11/15 02:34:28;;;;;;;4.57;2.50;;;;;;;9.89;nan;100107.41;5048461;28;20071;-85
2022/11/15 02:37:14;;;;;;;3.70;2.53;;;;;;;9.87;nan;100107.59;5033785;28;20029;-85
2022/11/15 02:39:54;;;;;;;3.75;2.40;;;;;;;9.79;nan;100105.72;5049635;28;20116;-84
2022/11/15 02:45:15;;;;;;;3.75;2.70;;;;;;;9.61;nan;100090.94;5064177;28;20043;-85
2022/11/15 02:47:46;;;;;;;;;;;;;;;9.51;nan;100089.22;5044720;28;20052;-85
2022/11/15 02:50:16;;;;;;;4.47;2.53;;;;;;;9.47;nan;100085.25;5052284;28;20021;-86
2022/11/15 02:52:45;;;;;;;4.00;2.35;;;;;;;9.41;nan;100083.22;5070475;28;20044;-85
2022/11/15 02:55:31;;;;;;;5.78;2.20;;;;;;;9.35;nan;100079.41;5043529;28;20079;-85
2022/11/15 02:58:23;;;;;;;3.20;2.38;;;;;;;9.32;nan;100078.88;5056460;28;20047;-85
2022/11/15 03:01:17;;;;;;;3.20;2.30;;;;;;;9.30;nan;100072.94;5049315;28;20030;-85
2022/11/15 03:04:13;;;;;;;3.83;2.58;;;;;;;9.23;nan;100069.25;5047701;28;20044;-86
2022/11/15 03:06:56;;;;;;;4.57;2.60;;;;;;;9.23;nan;100067.44;5060203;28;20072;-85
2022/11/15 03:09:42;;;;;;;4.55;3.10;;;;;;;9.24;nan;100060.34;5052301;28;20048;-85
2022/11/15 03:12:22;;;;;;;4.93;2.92;;;;;;;9.24;nan;100068.25;5065786;28;20079;-86
2022/11/15 03:15:00;;;;;;;3.60;2.60;;;;;;;9.22;nan;100067.59;5049596;28;20033;-86
2022/11/15 03:17:30;;;;;;;5.55;2.28;;;;;;;9.21;nan;100066.75;5059116;28;20040;-85
2022/11/15 03:19:58;;;;;;;4.85;2.70;;;;;;;9.21;nan;100058.84;5054196;28;20422;-84
2022/11/15 03:22:27;;;;;;;3.78;2.58;;;;;;;9.24;nan;100060.34;5056198;28;20040;-85
2022/11/15 03:24:57;;;;;;;4.30;2.78;;;;;;;9.30;nan;100063.19;5053422;28;20083;-85
2022/11/15 03:27:27;;;;;;;4.03;2.53;;;;;;;9.38;nan;100067.69;5053647;28;20033;-85
2022/11/15 03:29:58;;;;;;;2.78;2.17;;;;;;;9.44;nan;100072.38;5053251;28;20570;-85
2022/11/15 03:32:25;;;;;;;;;;;;;;;9.47;nan;100066.78;5054710;28;20551;-85
2022/11/15 03:35:02;;;;;;;3.58;2.45;;;;;;;9.50;nan;100066.44;5053428;28;19912;-86
2022/11/15 03:37:48;;;;;;;2.80;1.88;;;;;;;9.56;nan;100059.72;5045321;28;20421;-85
2022/11/15 03:40:15;;;;;;;3.13;2.00;;;;;;;9.61;nan;100067.19;5072062;28;20037;-85
2022/11/15 03:42:53;;;;;;;2.45;1.90;;;;;;;9.65;nan;100068.50;5074181;28;20303;-86
2022/11/15 03:45:54;;;;;;;3.10;1.77;;;;;;;9.69;nan;100075.97;5056773;28;20040;-85
2022/11/15 03:48:26;;;;;;;2.90;1.60;;;;;;;9.73;nan;100074.66;5029921;28;20037;-85
2022/11/15 03:50:52;;;;;;;2.88;1.85;;;;;;;9.74;nan;100064.94;5050739;28;20061;-85
2022/11/15 03:53:17;;;;;;;3.22;2.15;;;;;;;9.76;nan;100066.41;5054840;28;20075;-85
2022/11/15 03:55:43;;;;;;;2.92;2.08;;;;;;;9.79;nan;100060.00;5056910;28;20033;-85
2022/11/15 03:58:08;;;;;;;3.53;2.45;;;;;;;9.78;nan;100055.72;5057315;28;20044;-85
2022/11/15 04:00:34;;;;;;;3.22;2.30;;;;;;;9.82;nan;100051.78;5058199;28;20510;-86
2022/11/15 04:02:59;;;;;;;3.15;2.22;;;;;;;9.85;nan;100064.66;5054879;28;20092;-85
2022/11/15 04:05:24;;;;;;;5.35;3.15;;;;;;;9.76;nan;100066.41;5056715;28;20601;-85
2022/11/15 04:07:50;;;;;;;3.80;2.58;;;;;;;9.83;nan;100065.81;5057720;28;20047;-85
2022/11/15 04:10:16;;;;;;;3.58;2.20;;;;;;;9.85;nan;100067.28;5056818;28;20374;-85
2022/11/15 04:12:43;;;;;;;4.90;3.00;;;;;;;9.85;nan;100069.13;5058139;28;20082;-85
2022/11/15 04:15:14;;;;;;;4.25;2.70;;;;;;;9.89;nan;100075.72;5054098;28;20460;-85
2022/11/15 04:17:50;;;;;;;4.15;2.50;;;;;;;9.90;nan;100069.47;5043527;28;20024;-85
2022/11/15 04:25:55;;;;;;;3.10;2.40;;;;;;;10.06;nan;100071.31;5060230;28;20044;-85
2022/11/15 04:28:21;;;;;;;3.72;2.25;;;;;;;10.07;nan;100073.81;5056065;28;20037;-86
2022/11/15 04:30:47;;;;;;;4.57;3.05;;;;;;;10.03;nan;100066.38;5058270;28;20441;-85
2022/11/15 04:33:13;;;;;;;3.63;2.58;;;;;;;10.05;nan;100064.41;5058401;28;20043;-86
2022/11/15 04:35:38;;;;;;;7.00;3.15;;;;;;;10.06;nan;100064.25;5068114;28;20490;-85
2022/11/15 04:38:06;;;;;;;4.47;2.90;;;;;;;10.07;nan;100057.16;5056905;28;20039;-85
2022/11/15 04:40:31;;;;;;;3.47;2.40;;;;;;;10.11;nan;100066.41;5049665;28;20032;-85
2022/11/15 04:42:57;;;;;;;3.63;1.90;;;;;;;10.14;nan;100058.16;5051440;28;20045;-85
2022/11/15 04:45:22;;;;;;;3.90;2.00;;;;;;;10.18;nan;100059.50;5071398;28;20033;-85
2022/11/15 04:47:48;;;;;;;2.88;2.20;;;;;;;10.15;nan;100055.38;5059447;28;20040;-85
2022/11/15 04:50:14;;;;;;;3.70;2.40;;;;;;;10.15;nan;100054.53;5057713;28;20043;-84
2022/11/15 04:52:42;;;;;;;3.67;2.45;;;;;;;10.16;nan;100050.91;5061574;28;20041;-85
2022/11/15 04:55:08;;;;;;;3.25;2.20;;;;;;;10.21;nan;100053.88;5051448;28;20029;-85
2022/11/15 04:57:33;;;;;;;2.72;2.10;;;;;;;10.19;nan;100054.03;5070310;28;20029;-85
2022/11/15 04:59:58;;;;;;;3.38;2.20;;;;;;;10.14;nan;100051.06;5060721;28;20601;-85
2022/11/15 05:02:24;;;;;;;3.10;1.90;;;;;;;10.08;nan;100051.72;5070331;28;20036;-86
2022/11/15 05:05:09;;;;;;;4.97;2.55;;;;;;;10.03;nan;100040.78;5073487;28;20072;-85
2022/11/15 05:07:34;;;;;;;3.15;1.98;;;;;;;9.97;nan;100036.97;5050819;28;20557;-85
2022/11/15 05:09:59;;;;;;;4.05;2.60;;;;;;;9.91;nan;100028.84;5045008;28;20044;-85
2022/11/15 05:12:25;;;;;;;3.65;2.20;;;;;;;9.89;nan;100033.47;5051972;28;20079;-85
2022/11/15 05:14:50;;;;;;;4.20;2.63;;;;;;;9.87;nan;100025.72;5052978;28;20036;-85
2022/11/15 05:17:15;;;;;;;4.50;2.90;;;;;;;9.90;nan;100021.94;5052631;28;20861;-85
2022/11/15 05:19:40;;;;;;;6.13;3.40;;;;;;;9.88;nan;100024.72;5052703;28;20040;-85
2022/11/15 05:22:05;;;;;;;4.32;2.80;;;;;;;9.91;nan;100029.66;5051749;28;20024;-85
2022/11/15 05:24:31;;;;;;;3.90;2.78;;;;;;;9.94;nan;100021.44;5052006;28;20444;-85
2022/11/15 05:26:56;;;;;;;4.72;2.55;;;;;;;9.97;nan;100013.19;5045398;28;20061;-85
2022/11/15 05:29:21;;;;;;;5.93;2.70;;;;;;;9.97;nan;100015.03;5052566;28;20489;-85
2022/11/15 05:31:47;;;;;;;4.35;2.60;;;;;;;9.90;nan;100014.81;5056797;28;20111;-86
2022/11/15 05:34:12;;;;;;;4.03;2.50;;;;;;;9.82;nan;100014.81;5047515;28;20067;-85
2022/11/15 05:36:41;;;;;;;4.03;2.65;;;;;;;9.78;nan;100022.22;5076112;28;20036;-86
2022/11/15 05:39:07;;;;;;;3.88;2.47;;;;;;;9.69;nan;100017.88;5075794;28;20048;-86
2022/11/15 05:41:40;;;;;;;4.88;3.17;;;;;;;9.64;nan;100011.44;5057434;28;20066;-86
2022/11/15 05:44:09;;;;;;;4.45;2.78;;;;;;;9.65;nan;100015.72;5047471;28;20035;-85
2022/11/15 05:46:35;;;;;;;4.55;2.90;;;;;;;9.66;nan;100010.28;5048581;28;20040;-85
2022/11/15 05:49:01;;;;;;;4.70;2.88;;;;;;;9.69;nan;100019.69;5066702;28;20040;-85
2022/11/15 05:51:28;;;;;;;4.70;3.25;;;;;;;9.69;nan;100017.88;5048748;28;20044;-85
2022/11/15 05:53:56;;;;;;;4.32;3.05;;;;;;;9.72;nan;100022.00;5051499;28;20051;-85
2022/11/15 05:56:22;;;;;;;4.30;2.95;;;;;;;9.73;nan;100011.31;5047327;28;20057;-85
2022/11/15 05:58:47;;;;;;;4.70;2.80;;;;;;;9.76;nan;100018.91;5051842;28;20505;-85
2022/11/15 06:01:13;;;;;;;6.28;3.47;;;;;;;9.80;nan;100016.78;5043104;28;20087;-86
2022/11/15 06:03:38;;;;;;;5.53;3.50;;;;;;;9.82;nan;100019.25;5060895;28;20060;-86
2022/11/15 06:06:03;;;;;;;5.88;4.00;;;;;;;9.83;nan;100026.19;5049370;28;20032;-85
2022/11/15 06:08:29;;;;;;;6.82;4.07;;;;;;;9.84;nan;100028.66;5052139;28;20062;-86
2022/11/15 06:10:54;;;;;;;7.35;3.97;;;;;;;9.87;nan;100028.34;5052256;28;20116;-85
2022/11/15 06:13:19;;;;;;;4.55;3.15;;;;;;;9.88;nan;100027.34;5051652;28;20040;-85
2022/11/15 06:15:45;;;;;;;5.40;3.40;;;;;;;9.89;nan;100028.19;5052353;28;20402;-85
2022/11/15 06:18:10;;;;;;;5.18;3.30;;;;;;;9.92;nan;100030.53;5051424;28;20056;-85
2022/11/15 06:20:35;;;;;;;4.53;2.70;;;;;;;9.94;nan;100029.38;5051297;28;20048;-85
2022/11/15 06:23:02;;;;;;;4.32;3.20;;;;;;;9.95;nan;100032.84;5047680;28;20037;-85
2022/11/15 06:25:29;;;;;;;4.65;3.10;;;;;;;9.95;nan;100025.72;5045800;28;20060;-85
2022/11/15 06:27:56;;;;;;;4.32;2.55;;;;;;;9.95;nan;100025.72;5046695;28;20458;-85
2022/11/15 06:30:22;;;;;;;4.07;2.35;;;;;;;9.94;nan;100026.72;5047468;28;20044;-85
2022/11/15 06:32:48;;;;;;;5.40;3.28;;;;;;;9.95;nan;100023.09;5044632;28;20041;-86
2022/11/15 06:35:14;;;;;;;3.58;2.50;;;;;;;9.93;nan;100019.78;5068900;28;20035;-84
2022/11/15 06:37:40;;;;;;;3.80;2.50;;;;;;;9.93;nan;100035.63;5073857;28;20559;-85
2022/11/15 06:40:07;;;;;;;4.10;2.67;;;;;;;9.91;nan;100034.94;5050559;28;20069;-85
2022/11/15 06:42:32;;;;;;;4.15;2.78;;;;;;;9.89;nan;100034.31;5053160;28;20032;-84
2022/11/15 06:44:58;;;;;;;4.32;3.20;;;;;;;9.92;nan;100041.91;5069125;28;20059;-85
2022/11/15 06:47:23;;;;;;;5.03;3.30;;;;;;;9.92;nan;100043.72;5049725;28;20063;-85
2022/11/15 06:49:48;;;;;;;7.85;3.22;;;;;;;9.95;nan;100036.31;5051089;28;20123;-84
2022/11/15 06:52:14;;;;;;;4.60;2.75;;;;;;;9.94;nan;100021.44;5051048;28;20108;-83
2022/11/15 06:54:39;;;;;;;6.68;3.40;;;;;;;9.88;nan;100022.06;5053035;28;20036;-84
2022/11/15 06:57:05;;;;;;;5.43;3.70;;;;;;;9.85;nan;100026.88;5049656;28;20037;-84
2022/11/15 06:59:30;;;;;;;6.90;4.53;;;;;;;9.83;nan;100024.38;5069485;28;20024;-84
2022/11/15 07:01:55;;;;;;;8.50;5.10;;;;;;;9.85;nan;100021.59;5050539;28;20037;-84
2022/11/15 07:04:21;;;;;;;6.45;4.70;;;;;;;9.90;nan;100020.09;5051006;28;20037;-84
2022/11/15 07:06:48;;;;;;;6.43;4.28;;;;;;;9.97;nan;100021.13;5072310;28;20444;-84
2022/11/15 07:09:13;;;;;;;5.15;3.90;;;;;;;10.03;nan;100026.75;5068741;28;20029;-84
2022/11/15 07:11:38;;;;;;;6.03;4.60;;;;;;;10.05;nan;100024.78;5045669;28;20048;-84
2022/11/15 07:14:04;;;;;;;5.55;4.18;;;;;;;10.09;nan;100026.94;5064614;28;20044;-84
2022/11/15 07:16:29;;;;;;;6.10;3.92;;;;;;;10.21;nan;100024.81;5054485;28;20028;-85
2022/11/15 07:18:54;;;;;;;5.20;3.70;;;;;;;10.32;nan;100029.00;5066865;28;20043;-85
2022/11/15 07:21:20;;;;;;;5.78;4.13;;;;;;;10.43;nan;100022.59;5058396;23;20647;-69
2022/11/15 07:23:45;;;;;;;6.13;4.15;;;;;;;10.47;nan;100031.84;5057235;28;20096;-69
2022/11/15 07:26:10;;;;;;;7.03;4.53;;;;;;;10.53;nan;100028.53;5064576;28;20032;-69
2022/11/15 07:28:36;;;;;;;5.97;4.47;;;;;;;10.64;nan;100025.56;5069123;28;20045;-69
2022/11/15 07:31:03;;;;;;;6.00;3.72;;;;;;;10.80;nan;100030.88;5065005;28;20423;-69
2022/11/15 07:33:28;;;;;;;5.60;3.38;;;;;;;10.96;nan;100030.03;5066418;28;20033;-69
2022/11/15 07:35:53;;;;;;;4.65;3.42;;;;;;;11.05;nan;100030.84;5043941;28;21815;-69
2022/11/15 07:38:19;;;;;;;4.82;3.20;;;;;;;11.10;nan;100025.88;5067580;28;20139;-69
2022/11/15 07:40:45;;;;;;;4.00;3.00;;;;;;;11.14;nan;100029.84;5067032;28;20037;-69
2022/11/15 07:43:10;;;;;;;4.75;3.60;;;;;;;11.21;nan;100020.25;5066527;28;20075;-69
2022/11/15 07:45:41;;;;;;;5.70;3.65;;;;;;;11.30;nan;100025.50;5065225;28;20041;-69
2022/11/15 07:48:06;;;;;;;4.30;2.83;;;;;;;11.40;nan;100028.81;5068900;28;20127;-69
2022/11/15 07:50:31;;;;;;;4.13;2.80;;;;;;;11.51;nan;100025.78;5068251;28;20116;-69
2022/11/15 07:52:59;;;;;;;3.53;2.25;;;;;;;11.59;nan;100027.59;5066520;28;20044;-69
2022/11/15 07:55:27;;;;;;;3.88;3.00;;;;;;;11.60;nan;100034.53;5068663;28;20063;-69
2022/11/15 07:57:52;;;;;;;4.18;2.95;;;;;;;11.65;nan;100030.38;5068201;28;20283;-69
2022/11/15 08:00:19;;;;;;;4.72;3.22;;;;;;;11.69;nan;100033.53;5068817;28;20091;-69
2022/11/15 08:02:45;;;;;;;6.07;3.40;;;;;;;11.75;nan;100027.56;5065061;28;20335;-69
2022/11/15 08:05:10;;;;;;;5.47;3.58;;;;;;;11.81;nan;100024.19;5068008;28;20032;-69
2022/11/15 08:07:35;;;;;;;6.40;4.32;;;;;;;11.85;nan;100038.75;5051336;28;20045;-69
2022/11/15 08:10:01;;;;;;;6.07;3.78;;;;;;;11.85;nan;100030.00;5063088;28;20060;-69
2022/11/15 08:12:28;;;;;;;6.75;3.90;;;;;;;11.83;nan;100024.03;5065440;28;20071;-69
2022/11/15 08:14:55;;;;;;;6.57;3.70;;;;;;;11.83;nan;100018.75;5049588;28;20044;-69
2022/11/15 08:17:20;;;;;;;5.57;3.50;;;;;;;11.89;nan;100023.38;5061478;28;20029;-69
2022/11/15 08:19:46;;;;;;;4.63;2.88;;;;;;;12.02;nan;100017.53;5066599;28;20512;-69
2022/11/15 08:22:11;;;;;;;4.40;3.03;;;;;;;12.16;nan;100021.25;5066504;28;20024;-69
2022/11/15 08:24:36;;;;;;;4.15;2.72;;;;;;;12.30;nan;100020.53;5066707;28;20066;-69
2022/11/15 08:27:02;;;;;;;4.57;2.70;;;;;;;12.41;nan;100009.47;5065157;28;20040;-69
2022/11/15 08:29:27;;;;;;;5.70;2.90;;;;;;;12.51;nan;100010.09;5061681;28;20469;-69
2022/11/15 08:31:55;;;;;;;4.47;2.50;;;;;;;12.59;nan;100003.91;5062237;28;20051;-69
2022/11/15 08:34:21;;;;;;;4.78;2.72;;;;;;;12.69;nan;100003.66;5058436;28;20044;-69
2022/11/15 08:36:46;;;;;;;4.18;2.50;;;;;;;12.83;nan;100005.53;5061299;28;20036;-69
2022/11/15 08:39:12;;;;;;;3.90;2.28;;;;;;;12.96;nan;100002.25;5065797;28;20115;-69
2022/11/15 08:41:38;;;;;;;4.60;2.30;;;;;;;13.11;nan;100002.28;5064958;28;20184;-69
2022/11/15 08:44:03;;;;;;;4.00;2.22;;;;;;;13.12;nan;100006.59;5067198;28;20032;-69
2022/11/15 08:46:29;;;;;;;5.50;2.55;;;;;;;13.11;nan;99992.50;5063630;28;20033;-69
2022/11/15 08:48:54;;;;;;;5.18;2.40;;;;;;;13.14;nan;100002.75;5063260;28;20036;-69
2022/11/15 08:51:19;;;;;;;5.05;2.50;;;;;;;13.06;nan;99991.38;5044793;28;20048;-70
2022/11/15 08:53:45;;;;;;;5.88;2.85;;;;;;;12.96;nan;99997.75;5039292;28;20059;-69
2022/11/15 08:56:12;;;;;;;4.68;3.20;;;;;;;12.87;nan;99985.59;5063060;28;20492;-69
2022/11/15 08:58:38;;;;;;;5.43;2.90;;;;;;;12.75;nan;99993.16;5074173;22;20045;-67
2022/11/15 09:01:04;;;;;;;6.30;2.90;;;;;;;12.81;nan;100002.22;5060047;28;20043;-67
2022/11/15 09:03:29;;;;;;;4.97;3.13;;;;;;;12.92;nan;100001.78;5056608;28;20415;-67
2022/11/15 09:05:56;;;;;;;4.57;2.60;;;;;;;13.06;nan;99999.34;5057764;28;20096;-67
2022/11/15 09:08:22;;;;;;;4.95;2.25;;;;;;;13.22;nan;99999.16;5055073;28;20044;-67
2022/11/15 09:10:47;;;;;;;3.20;2.17;;;;;;;13.39;nan;99999.84;5060502;28;20499;-67
2022/11/15 09:13:13;;;;;;;2.50;1.83;;;;;;;13.48;nan;99997.94;5057991;28;21250;-66
2022/11/15 09:15:39;;;;;;;3.85;2.00;;;;;;;13.59;nan;99993.00;5058474;28;20582;-67
2022/11/15 09:18:04;;;;;;;3.92;1.98;;;;;;;13.65;nan;99995.91;5063352;28;20037;-68
2022/11/15 09:20:29;;;;;;;4.97;2.33;;;;;;;13.71;nan;99997.84;5065519;28;20043;-67
2022/11/15 09:22:55;;;;;;;3.90;2.40;;;;;;;13.73;nan;99988.69;5061531;28;20040;-67
2022/11/15 09:25:20;;;;;;;4.07;2.35;;;;;;;13.78;nan;99991.59;5055228;28;20036;-67
2022/11/15 09:27:45;;;;;;;3.58;2.35;;;;;;;13.92;nan;99997.06;5063819;28;20036;-67
2022/11/15 09:30:11;;;;;;;4.80;2.55;;;;;;;14.11;nan;99996.47;5065074;28;20415;-67
2022/11/15 09:32:36;;;;;;;2.85;2.08;;;;;;;14.33;nan;99997.31;5061732;28;20040;-67
2022/11/15 09:35:02;;;;;;;2.53;1.77;;;;;;;14.49;nan;100000.72;5061714;28;20792;-67
2022/11/15 09:37:28;;;;;;;3.17;2.10;;;;;;;14.61;nan;100007.22;5063988;28;20636;-67
2022/11/15 09:39:53;;;;;;;3.72;1.92;;;;;;;14.76;nan;100005.31;5055020;28;20076;-67
2022/11/15 09:42:49;;;;;;;5.18;1.85;;;;;;;14.93;nan;99994.41;5064239;28;20033;-67
2022/11/15 09:45:24;;;;;;;2.65;1.70;;;;;;;15.12;nan;99990.22;5044289;28;20040;-67
2022/11/15 09:48:32;;;;;;;4.50;2.08;;;;;;;15.18;nan;99995.59;5059306;28;20048;-67
2022/11/15 09:51:00;;;;;;;4.60;2.10;;;;;;;15.44;nan;100002.91;5036064;28;20442;-67
2022/11/15 09:53:48;;;;;;;2.85;1.77;;;;;;;15.50;nan;99988.00;5063776;28;20028;-67
2022/11/15 09:56:27;;;;;;;3.40;2.10;;;;;;;15.44;nan;99986.94;5057613;28;20072;-68
2022/11/15 09:59:05;;;;;;;3.47;2.13;;;;;;;15.38;nan;99990.41;5059630;28;20029;-67
2022/11/15 10:01:47;;;;;;;3.45;2.15;;;;;;;15.42;nan;99980.16;5062669;28;20067;-67
2022/11/15 10:04:14;;;;;;;3.55;2.10;;;;;;;15.49;nan;99992.50;5064337;28;20312;-68
2022/11/15 10:06:47;;;;;;;3.92;2.50;;;;;;;15.57;nan;99985.38;5065339;28;20096;-67
2022/11/15 10:09:26;;;;;;;3.67;2.10;;;;;;;15.63;nan;99988.03;5060596;28;20115;-67
2022/11/15 10:11:51;;;;;;;3.67;2.20;;;;;;;15.68;nan;99990.97;5061799;28;20089;-67
2022/11/15 10:14:26;;;;;;;6.63;2.60;;;;;;;15.68;nan;99982.13;5060121;28;20040;-67
2022/11/15 10:17:20;;;;;;;3.30;2.20;;;;;;;15.71;nan;99979.13;5046977;28;20463;-67
2022/11/15 10:20:06;;;;;;;2.70;1.90;;;;;;;15.84;nan;99970.34;5062674;28;20116;-67
2022/11/15 10:22:47;;;;;;;3.50;2.22;;;;;;;15.84;nan;99967.66;5056852;28;20230;-67
2022/11/15 10:25:23;;;;;;;;;;;;;;;15.75;nan;99964.34;5049462;28;20032;-67
2022/11/15 10:28:04;;;;;;;3.38;2.00;;;;;;;15.74;nan;99965.38;5061297;28;19916;-67
2022/11/15 10:30:38;;;;;;;3.67;2.13;;;;;;;15.71;nan;99958.59;5064209;28;20039;-67
2022/11/15 10:33:25;;;;;;;6.13;2.35;;;;;;;15.68;nan;99952.81;5068971;28;20040;-67
2022/11/15 10:36:12;;;;;;;3.80;2.30;;;;;;;15.72;nan;99948.75;5062651;28;20520;-67
2022/11/15 10:38:49;;;;;;;3.70;2.17;;;;;;;15.68;nan;99947.47;5066471;28;20337;-67
2022/11/15 10:41:21;;;;;;;4.53;2.40;;;;;;;15.67;nan;99937.84;5062466;28;20063;-67
2022/11/15 10:44:16;;;;;;;5.60;2.20;;;;;;;15.62;nan;99942.97;5067624;28;20124;-67
2022/11/15 10:46:43;;;;;;;4.25;2.50;;;;;;;15.61;nan;99938.63;5066501;28;20044;-67
2022/11/15 10:49:12;;;;;;;3.75;2.22;;;;;;;15.59;nan;99933.53;5060042;28;20424;-67
2022/11/15 10:51:44;;;;;;;4.53;2.40;;;;;;;15.62;nan;99924.31;5051281;28;20036;-67
2022/11/15 10:54:13;;;;;;;3.92;2.25;;;;;;;15.62;nan;99922.44;5065695;28;20431;-68
2022/11/15 10:56:40;;;;;;;3.65;2.10;;;;;;;15.59;nan;99922.84;5048579;28;20043;-67
2022/11/15 10:59:15;;;;;;;3.85;1.75;;;;;;;15.69;nan;99920.63;5067011;28;20043;-67
2022/11/15 11:01:48;;;;;;;3.42;2.00;;;;;;;15.86;nan;99920.31;5067555;28;20557;-67
2022/11/15 11:04:13;;;;;;;3.17;1.95;;;;;;;16.05;nan;99910.72;5067206;28;20036;-68
2022/11/15 11:06:55;;;;;;;3.38;2.05;;;;;;;16.12;nan;99907.03;5062054;28;20581;-67
2022/11/15 11:09:28;;;;;;;5.05;2.30;;;;;;;16.10;nan;99901.06;5063928;28;20120;-67
2022/11/15 11:11:53;;;;;;;3.75;2.28;;;;;;;16.13;nan;99892.66;5065268;28;20442;-67
2022/11/15 11:14:23;;;;;;;3.17;2.15;;;;;;;16.09;nan;99886.09;5061416;28;20045;-68
2022/11/15 11:16:55;;;;;;;5.13;2.30;;;;;;;16.11;nan;99886.72;5061454;28;20068;-67
2022/11/15 11:19:48;;;;;;;6.70;2.70;;;;;;;15.90;nan;99900.22;5066713;28;20090;-67
2022/11/15 11:22:28;;;;;;;4.53;2.33;;;;;;;15.77;nan;99893.00;5061442;28;20174;-68
2022/11/15 11:25:10;;;;;;;5.57;2.28;;;;;;;15.75;nan;99886.22;5065206;28;20055;-67
2022/11/15 11:28:26;;;;;;;4.80;2.28;;;;;;;15.76;nan;99879.88;5066372;28;20127;-67
2022/11/15 11:30:54;;;;;;;4.00;2.33;;;;;;;15.78;nan;99875.16;5028187;28;20124;-68
2022/11/15 11:33:31;;;;;;;5.70;2.70;;;;;;;15.74;nan;99872.09;5048422;28;20040;-67
2022/11/15 11:36:02;;;;;;;6.57;2.58;;;;;;;15.94;nan;99866.78;5061363;28;20036;-67
2022/11/15 11:38:40;;;;;;;4.63;2.10;;;;;;;16.10;nan;99869.06;5065795;28;20041;-67
2022/11/15 11:41:14;;;;;;;4.78;1.80;;;;;;;16.13;nan;99852.63;5062250;28;20102;-67
2022/11/15 11:44:05;;;;;;;5.97;2.40;;;;;;;16.09;nan;99853.28;5062425;28;20047;-67
2022/11/15 11:46:33;;;;;;;4.90;1.95;;;;;;;15.90;nan;99850.38;5057553;28;20055;-67
2022/11/15 11:49:07;;;;;;;3.53;2.00;;;;;;;15.69;nan;99839.84;5059838;28;20162;-67
2022/11/15 11:51:40;;;;;;;3.85;1.98;;;;;;;15.66;nan;99838.41;5061467;28;20033;-67
2022/11/15 11:54:14;;;;;;;3.03;1.95;;;;;;;15.83;nan;99840.75;5060313;28;20044;-68
2022/11/15 11:56:43;;;;;;;4.78;2.10;;;;;;;15.95;nan;99825.78;5063625;28;20070;-67
2022/11/15 11:59:39;;;;;;;2.92;1.65;;;;;;;15.98;nan;99821.88;5061069;28;20316;-67
2022/11/15 12:02:17;;;;;;;2.95;1.60;;;;;;;15.98;nan;99819.22;5055784;28;20093;-68
2022/11/15 12:04:49;;;;;;;3.55;1.70;;;;;;;15.95;nan;99811.63;5055283;28;20032;-67
2022/11/15 12:07:31;;;;;;;2.65;1.63;;;;;;;16.00;nan;99809.16;5059804;28;20036;-67
2022/11/15 12:10:11;;;;;;;;;;;;;;;16.05;nan;99814.69;5066971;28;20355;-67